Time;durP1;ratioP1;P1;durP2;ratioP2;P2;SDS_P1;SDS_P2;PMS_P1;PMS_P2;Temp;Humidity;BMP_temperature;BMP_pressure;BME280_temperature;BME280_humidity;BME280_pressure;Samples;Min_cycle;Max_cycle;Signal;HPM_P1;HPM_P2
2021/04/21 00:00:12;;;;;;;19.63;14.77;;;6.30;96.40;;;;;;5039436;28;20728;-87
2021/04/21 00:02:40;;;;;;;19.47;14.60;;;6.20;96.50;;;;;;5038579;28;20243;-86
2021/04/21 00:05:10;;;;;;;17.97;15.03;;;6.20;96.90;;;;;;5033659;28;20191;-85
2021/04/21 00:07:37;;;;;;;17.93;15.37;;;6.20;96.70;;;;;;5031575;28;20632;-86
2021/04/21 00:10:07;;;;;;;20.20;15.00;;;6.10;96.90;;;;;;5040243;28;20202;-85
2021/04/21 00:12:34;;;;;;;18.40;14.47;;;6.20;96.80;;;;;;5033947;28;20313;-85
2021/04/21 00:15:01;;;;;;;19.07;14.23;;;6.30;96.40;;;;;;5029622;28;20587;-85
2021/04/21 00:17:28;;;;;;;19.03;14.63;;;6.30;96.10;;;;;;5026425;28;20245;-88
2021/04/21 00:19:59;;;;;;;19.30;14.37;;;6.40;95.80;;;;;;5030915;28;20190;-87
2021/04/21 00:22:31;;;;;;;20.40;15.10;;;6.40;95.50;;;;;;5033144;28;21782;-85
2021/04/21 00:24:57;;;;;;;18.37;14.63;;;6.30;95.40;;;;;;5034472;28;20567;-87
2021/04/21 00:27:27;;;;;;;18.50;14.60;;;6.30;95.40;;;;;;5034448;28;20230;-84
2021/04/21 00:29:57;;;;;;;18.97;14.70;;;6.30;95.60;;;;;;5037927;28;20228;-85
2021/04/21 00:32:26;;;;;;;20.00;14.50;;;6.20;95.30;;;;;;5034823;28;20237;-86
2021/04/21 00:34:55;;;;;;;17.70;13.60;;;6.10;95.60;;;;;;5038657;28;20302;-85
2021/04/21 00:37:25;;;;;;;17.93;13.73;;;6.10;95.70;;;;;;5029092;28;20222;-83
2021/04/21 00:39:52;;;;;;;19.10;13.57;;;6.00;95.60;;;;;;5040084;28;20199;-84
2021/04/21 00:42:25;;;;;;;17.00;13.47;;;6.00;95.80;;;;;;5032793;28;20304;-86
2021/04/21 00:45:00;;;;;;;17.20;13.70;;;6.00;95.80;;;;;;5033620;28;20202;-85
2021/04/21 00:47:38;;;;;;;16.20;13.03;;;6.00;95.60;;;;;;5032542;28;20305;-84
2021/04/21 00:50:12;;;;;;;17.07;13.77;;;6.00;95.30;;;;;;5032375;28;20221;-85
2021/04/21 00:52:47;;;;;;;17.93;13.70;;;5.90;95.30;;;;;;5027217;28;20234;-88
2021/04/21 00:55:18;;;;;;;17.13;12.93;;;5.90;95.50;;;;;;5031071;28;20583;-88
2021/04/21 00:57:54;;;;;;;17.40;12.77;;;5.80;95.50;;;;;;5037238;28;20226;-86
2021/04/21 01:00:24;;;;;;;16.57;12.93;;;5.80;95.20;;;;;;5036844;28;20205;-87
2021/04/21 01:02:55;;;;;;;15.87;11.87;;;5.80;95.40;;;;;;5041141;28;20217;-84
2021/04/21 01:05:24;;;;;;;16.10;12.47;;;5.80;95.50;;;;;;5043391;28;20264;-86
2021/04/21 01:08:01;;;;;;;15.97;12.80;;;5.70;95.40;;;;;;5039497;28;20210;-85
2021/04/21 01:10:33;;;;;;;16.50;12.30;;;5.60;95.50;;;;;;5040341;28;20633;-85
2021/04/21 01:13:01;;;;;;;15.07;11.73;;;5.50;95.80;;;;;;5035950;28;20230;-85
2021/04/21 01:15:35;;;;;;;17.37;11.80;;;5.50;96.10;;;;;;5039541;28;20242;-84
2021/04/21 01:18:04;;;;;;;15.20;12.17;;;5.40;95.90;;;;;;5034789;28;20225;-84
2021/04/21 01:20:36;;;;;;;15.37;12.37;;;5.40;95.60;;;;;;5035536;28;20227;-84
2021/04/21 01:23:36;;;;;;;15.07;11.83;;;5.40;95.50;;;;;;5033004;28;20233;-85
2021/04/21 01:26:17;;;;;;;14.93;11.43;;;5.40;95.40;;;;;;5031806;28;20229;-86
2021/04/21 01:28:50;;;;;;;14.37;11.40;;;5.30;95.40;;;;;;5033125;28;20337;-86
2021/04/21 01:31:18;;;;;;;14.90;11.13;;;5.30;95.60;;;;;;5029078;28;20230;-85
2021/04/21 01:33:48;;;;;;;14.23;11.40;;;5.40;95.40;;;;;;5030810;28;20198;-84
2021/04/21 01:36:19;;;;;;;12.03;10.63;;;5.30;95.10;;;;;;5031857;28;20264;-84
2021/04/21 01:38:48;;;;;;;14.83;11.50;;;5.30;95.10;;;;;;5032239;28;20241;-84
2021/04/21 01:41:18;;;;;;;14.13;11.27;;;5.30;95.10;;;;;;5030261;28;21155;-84
2021/04/21 01:43:48;;;;;;;15.73;12.03;;;5.20;95.10;;;;;;5030528;28;20577;-84
2021/04/21 01:46:16;;;;;;;12.93;10.77;;;5.10;95.70;;;;;;5031851;28;20752;-84
2021/04/21 01:48:44;;;;;;;17.00;11.40;;;5.00;96.10;;;;;;5031344;28;20799;-84
2021/04/21 01:51:16;;;;;;;15.37;11.53;;;4.90;96.30;;;;;;5029740;28;20226;-86
2021/04/21 01:53:48;;;;;;;13.63;10.90;;;4.90;96.30;;;;;;5029027;28;20208;-84
2021/04/21 01:56:21;;;;;;;14.40;11.30;;;4.90;96.30;;;;;;5026958;28;20235;-85
2021/04/21 01:59:00;;;;;;;14.40;10.60;;;4.90;96.30;;;;;;5028970;28;20205;-84
2021/04/21 02:01:39;;;;;;;14.43;10.40;;;4.90;96.30;;;;;;5033424;28;20222;-87
2021/04/21 02:04:13;;;;;;;15.90;10.47;;;4.90;96.10;;;;;;5035180;28;20251;-84
2021/04/21 02:06:51;;;;;;;13.97;10.43;;;5.00;96.00;;;;;;5034418;28;20222;-85
2021/04/21 02:09:57;;;;;;;11.83;9.73;;;5.00;95.70;;;;;;5036454;28;20259;-84
2021/04/21 02:12:53;;;;;;;13.80;9.77;;;5.10;95.30;;;;;;5033206;28;20228;-86
2021/04/21 02:15:29;;;;;;;12.87;10.40;;;5.10;95.10;;;;;;5035572;28;20222;-84
2021/04/21 02:18:04;;;;;;;14.77;10.47;;;5.10;95.10;;;;;;5033476;28;20229;-84
2021/04/21 02:20:38;;;;;;;12.63;10.10;;;5.10;95.10;;;;;;5035067;28;20665;-84
2021/04/21 02:23:09;;;;;;;14.30;9.60;;;5.10;95.10;;;;;;5035914;28;20206;-84
2021/04/21 02:26:04;;;;;;;14.10;10.50;;;5.00;95.10;;;;;;5029900;28;20631;-84
2021/04/21 02:28:45;;;;;;;16.10;10.57;;;5.00;95.10;;;;;;5028273;28;20266;-83
2021/04/21 02:31:26;;;;;;;13.23;10.20;;;4.90;95.10;;;;;;5034252;28;20252;-85
2021/04/21 02:34:00;;;;;;;14.63;9.77;;;4.90;95.10;;;;;;5027473;28;20263;-83
2021/04/21 02:36:36;;;;;;;12.40;9.33;;;4.80;95.20;;;;;;5037853;28;20240;-83
2021/04/21 02:39:09;;;;;;;14.47;10.10;;;4.80;95.30;;;;;;5044855;28;20206;-85
2021/04/21 02:41:44;;;;;;;14.97;9.70;;;4.70;95.40;;;;;;5037810;28;20223;-86
2021/04/21 02:44:19;;;;;;;13.03;10.13;;;4.70;95.40;;;;;;5039099;28;20205;-86
2021/04/21 02:46:54;;;;;;;13.60;10.13;;;4.70;95.50;;;;;;5032963;28;20308;-83
2021/04/21 02:49:35;;;;;;;12.10;9.73;;;4.70;95.60;;;;;;5040855;28;20206;-89
2021/04/21 02:52:05;;;;;;;13.30;9.17;;;4.80;95.50;;;;;;5045138;28;20229;-83
2021/04/21 02:54:46;;;;;;;11.53;8.87;;;4.80;95.40;;;;;;5036366;28;20638;-83
2021/04/21 02:57:20;;;;;;;11.27;9.13;;;4.70;95.70;;;;;;5035086;28;20237;-83
2021/04/21 02:59:53;;;;;;;13.10;9.97;;;4.70;95.40;;;;;;5029000;28;20258;-85
2021/04/21 03:02:28;;;;;;;12.77;9.87;;;4.50;95.90;;;;;;5034827;28;20225;-85
2021/04/21 03:05:02;;;;;;;11.77;8.97;;;4.40;96.30;;;;;;5031802;28;20202;-85
2021/04/21 03:07:37;;;;;;;11.17;8.83;;;4.40;96.50;;;;;;5029546;28;20633;-85
2021/04/21 03:10:08;;;;;;;12.17;8.80;;;4.50;96.40;;;;;;5029681;28;20709;-84
2021/04/21 03:12:38;;;;;;;11.03;8.97;;;4.50;96.10;;;;;;5028692;28;20222;-84
2021/04/21 03:15:07;;;;;;;11.80;9.07;;;4.40;96.10;;;;;;5034558;28;20660;-85
2021/04/21 03:17:35;;;;;;;10.37;8.53;;;4.30;96.50;;;;;;5022150;28;20230;-85
2021/04/21 03:20:06;;;;;;;11.90;8.23;;;4.30;96.60;;;;;;5034152;28;20208;-85
2021/04/21 03:22:34;;;;;;;11.27;8.73;;;4.30;96.60;;;;;;5029431;28;20223;-84
2021/04/21 03:25:08;;;;;;;9.37;8.37;;;4.30;96.80;;;;;;5030747;28;20206;-84
2021/04/21 03:27:37;;;;;;;10.17;8.70;;;4.30;96.80;;;;;;5029847;28;20252;-85
2021/04/21 03:30:08;;;;;;;10.07;8.40;;;4.40;96.70;;;;;;5032674;28;20194;-85
2021/04/21 03:32:38;;;;;;;10.87;8.43;;;4.50;96.30;;;;;;5033397;28;20226;-84
2021/04/21 03:35:06;;;;;;;10.07;8.33;;;4.60;95.90;;;;;;5046061;28;20217;-88
2021/04/21 03:37:41;;;;;;;10.03;7.97;;;4.50;95.60;;;;;;5040415;28;20614;-86
2021/04/21 03:40:09;;;;;;;10.70;8.53;;;4.40;95.80;;;;;;5035425;28;20200;-83
2021/04/21 03:42:38;;;;;;;10.07;7.93;;;4.40;96.00;;;;;;5031495;28;20231;-83
2021/04/21 03:45:05;;;;;;;10.60;8.03;;;4.40;96.10;;;;;;5032327;28;20218;-85
2021/04/21 03:47:33;;;;;;;10.60;8.13;;;4.40;96.10;;;;;;5034367;28;20226;-84
2021/04/21 03:50:03;;;;;;;10.83;8.67;;;4.50;96.00;;;;;;5031906;28;20206;-83
2021/04/21 03:52:33;;;;;;;10.40;8.37;;;4.50;95.80;;;;;;5030724;28;20214;-83
2021/04/21 03:55:00;;;;;;;10.93;8.10;;;4.40;95.60;;;;;;5038959;28;20688;-86
2021/04/21 03:57:29;;;;;;;12.47;7.70;;;4.40;95.70;;;;;;5033515;28;20221;-86
2021/04/21 03:59:58;;;;;;;12.17;9.30;;;4.30;95.70;;;;;;5032411;28;20434;-82
2021/04/21 04:02:26;;;;;;;14.03;10.57;;;4.30;95.70;;;;;;5032812;28;20214;-83
2021/04/21 04:04:59;;;;;;;12.63;10.20;;;4.20;96.00;;;;;;5036631;28;20653;-82
2021/04/21 04:07:28;;;;;;;13.87;10.53;;;4.10;96.40;;;;;;5030344;28;20560;-81
2021/04/21 04:09:58;;;;;;;12.67;9.80;;;4.10;96.60;;;;;;5037869;28;20641;-85
2021/04/21 04:12:27;;;;;;;12.03;8.60;;;4.20;96.40;;;;;;5031507;28;20238;-84
2021/04/21 04:14:55;;;;;;;10.27;8.77;;;4.20;96.20;;;;;;5031805;28;20222;-83
2021/04/21 04:17:22;;;;;;;13.20;9.43;;;4.20;96.00;;;;;;5032296;28;20354;-83
2021/04/21 04:19:50;;;;;;;12.53;8.77;;;4.10;96.20;;;;;;5032221;28;20207;-82
2021/04/21 04:22:19;;;;;;;12.47;8.50;;;4.00;96.50;;;;;;5036607;28;20255;-83
2021/04/21 04:24:50;;;;;;;12.10;9.00;;;3.90;97.20;;;;;;5036518;28;20210;-83
2021/04/21 04:27:18;;;;;;;11.10;8.67;;;4.00;97.00;;;;;;5034624;28;20601;-83
2021/04/21 04:29:46;;;;;;;12.37;8.87;;;4.10;96.70;;;;;;5032791;28;20681;-83
2021/04/21 04:32:15;;;;;;;9.30;7.87;;;4.10;96.40;;;;;;5033918;28;21081;-82
2021/04/21 04:34:44;;;;;;;10.10;8.00;;;4.10;96.40;;;;;;5038613;28;20665;-82
2021/04/21 04:37:13;;;;;;;9.97;7.37;;;4.20;96.40;;;;;;5037884;28;20214;-83
2021/04/21 04:39:40;;;;;;;10.13;8.17;;;4.30;96.20;;;;;;5033887;28;20563;-82
2021/04/21 04:42:10;;;;;;;10.57;7.80;;;4.40;96.10;;;;;;5028109;28;20610;-84
2021/04/21 04:44:40;;;;;;;14.43;8.07;;;4.40;95.60;;;;;;5037646;28;20662;-85
2021/04/21 04:47:08;;;;;;;12.80;8.03;;;4.50;95.40;;;;;;5035286;28;20218;-82
2021/04/21 04:49:52;;;;;;;11.60;8.40;;;4.50;95.00;;;;;;5037050;28;20773;-82
2021/04/21 04:52:20;;;;;;;11.30;8.17;;;4.50;95.00;;;;;;5029669;28;20230;-82
2021/04/21 04:54:48;;;;;;;10.33;8.10;;;4.50;95.20;;;;;;5045063;28;20223;-82
2021/04/21 04:57:17;;;;;;;12.63;8.47;;;4.50;95.60;;;;;;5036901;28;20231;-83
2021/04/21 04:59:47;;;;;;;11.83;8.20;;;4.40;95.70;;;;;;5038179;28;20202;-82
2021/04/21 05:02:16;;;;;;;12.70;8.47;;;4.40;96.10;;;;;;5035158;28;20226;-82
2021/04/21 05:04:51;;;;;;;11.00;8.17;;;4.60;96.00;;;;;;5037701;28;20202;-83
2021/04/21 05:07:24;;;;;;;13.17;8.10;;;4.70;95.60;;;;;;5038532;28;20222;-82
2021/04/21 05:09:53;;;;;;;10.13;8.27;;;4.80;95.10;;;;;;5044629;28;20206;-84
2021/04/21 05:12:23;;;;;;;10.87;7.90;;;4.80;95.30;;;;;;5048290;28;20217;-82
2021/04/21 05:14:53;;;;;;;10.80;8.10;;;4.90;95.50;;;;;;5033737;28;20226;-83
2021/04/21 05:18:05;;;;;;;10.27;7.60;;;5.00;95.10;;;;;;5032632;28;20241;-85
2021/04/21 05:21:20;;;;;;;12.73;7.87;;;5.20;95.10;;;;;;5036079;28;20297;-84
2021/04/21 05:24:29;;;;;;;8.30;6.47;;;5.40;94.30;;;;;;5032459;28;20630;-84
2021/04/21 05:27:50;;;;;;;7.57;6.60;;;5.60;94.00;;;;;;5025224;28;20234;-84
2021/04/21 05:31:05;;;;;;;10.47;6.90;;;5.50;93.80;;;;;;5028294;28;20527;-84
2021/04/21 05:34:11;;;;;;;7.67;6.50;;;5.50;94.40;;;;;;4990520;28;20219;-86
2021/04/21 05:37:29;;;;;;;10.17;6.30;;;5.70;94.20;;;;;;5031731;28;20685;-85
2021/04/21 05:40:40;;;;;;;7.40;5.67;;;5.80;93.40;;;;;;5030716;28;20195;-85
2021/04/21 05:43:43;;;;;;;8.20;6.27;;;5.90;93.30;;;;;;5029968;28;20226;-85
2021/04/21 05:46:48;;;;;;;8.00;6.20;;;6.00;93.00;;;;;;5021190;28;20241;-87
2021/04/21 05:49:36;;;;;;;6.00;5.40;;;6.40;93.20;;;;;;5034626;28;20201;-86
2021/04/21 05:52:15;;;;;;;8.37;6.50;;;7.60;91.20;;;;;;5034604;28;20238;-86
2021/04/21 05:55:12;;;;;;;10.82;5.78;;;8.50;86.40;;;;;;5037934;28;20193;-86
2021/04/21 05:58:17;;;;;;;8.60;5.95;;;9.40;80.40;;;;;;5034495;28;20234;-87
2021/04/21 06:01:18;;;;;;;7.85;5.78;;;10.00;73.70;;;;;;5034377;28;20237;-86
2021/04/21 06:03:48;;;;;;;6.65;5.00;;;10.30;70.30;;;;;;5035573;28;20201;-86
2021/04/21 06:06:30;;;;;;;9.07;5.50;;;10.20;70.10;;;;;;5039438;28;20260;-86
2021/04/21 06:09:06;;;;;;;9.55;5.20;;;10.70;78.70;;;;;;5038558;28;20306;-88
2021/04/21 06:12:04;;;;;;;8.02;5.03;;;11.60;74.80;;;;;;5040497;28;20232;-85
2021/04/21 06:14:31;;;;;;;10.23;5.30;;;12.40;70.80;;;;;;5042462;28;20202;-88
2021/04/21 06:16:57;;;;;;;11.98;5.32;;;13.20;62.70;;;;;;5040821;28;20732;-85
2021/04/21 06:19:34;;;;;;;7.40;5.35;;;13.10;59.20;;;;;;5041761;28;20202;-86
2021/04/21 06:22:10;;;;;;;8.93;5.97;;;13.20;56.10;;;;;;5038020;28;20692;-86
2021/04/21 06:24:36;;;;;;;7.28;4.80;;;13.60;52.20;;;;;;5042977;28;20259;-87
2021/04/21 06:27:08;;;;;;;8.50;5.38;;;13.70;50.50;;;;;;5035833;28;20222;-88
2021/04/21 06:29:36;;;;;;;9.52;5.25;;;13.80;50.20;;;;;;5037746;28;20226;-90
2021/04/21 06:32:05;;;;;;;6.88;5.10;;;13.60;50.00;;;;;;5052641;28;20303;-88
2021/04/21 06:34:32;;;;;;;9.13;4.85;;;13.50;50.00;;;;;;5040465;28;20215;-88
2021/04/21 06:37:19;;;;;;;8.82;5.55;;;13.40;49.90;;;;;;5040158;28;20253;-87
2021/04/21 06:39:46;;;;;;;6.45;4.97;;;13.40;51.60;;;;;;5043917;28;20289;-87
2021/04/21 06:42:18;;;;;;;7.60;5.22;;;13.40;51.60;;;;;;5038678;28;20676;-87
2021/04/21 06:45:01;;;;;;;9.27;4.75;;;13.60;50.10;;;;;;5042226;28;20275;-88
2021/04/21 06:47:51;;;;;;;8.10;5.03;;;13.90;50.40;;;;;;5045284;28;20364;-87
2021/04/21 06:50:39;;;;;;;6.28;5.30;;;14.40;48.80;;;;;;5046551;28;20219;-87
2021/04/21 07:00:21;;;;;;;6.45;4.75;;;14.00;47.50;;;;;;5050808;28;20189;-87
2021/04/21 07:02:52;;;;;;;10.23;5.30;;;13.60;50.10;;;;;;5039959;28;20268;-88
2021/04/21 07:08:48;;;;;;;7.32;5.40;;;13.50;50.00;;;;;;5053030;28;20677;-90
2021/04/21 07:11:14;;;;;;;9.25;5.20;;;13.90;50.40;;;;;;5044317;28;20693;-88
2021/04/21 07:13:46;;;;;;;8.98;5.55;;;13.70;50.20;;;;;;5049427;28;20202;-88
2021/04/21 07:16:20;;;;;;;6.25;5.00;;;13.60;50.10;;;;;;5049286;28;20258;-87
2021/04/21 07:18:55;;;;;;;7.18;5.80;;;13.70;50.20;;;;;;5047155;28;20225;-87
2021/04/21 07:21:23;;;;;;;8.93;5.85;;;13.70;48.50;;;;;;5045475;28;20308;-87
2021/04/21 07:24:00;;;;;;;7.38;5.45;;;13.40;49.90;;;;;;5045768;28;20199;-86
2021/04/21 07:29:53;;;;;;;10.55;5.78;;;13.20;50.60;;;;;;5055825;28;20182;-86
2021/04/21 07:45:20;;;;;;;7.80;5.18;;;13.90;50.80;;;;;;5296951;22;20221;-87
2021/04/21 07:47:47;;;;;;;7.88;5.60;;;14.80;44.40;;;;;;5055103;28;20336;-88
2021/04/21 07:50:14;;;;;;;12.05;5.53;;;14.80;44.10;;;;;;5055785;28;20197;-90
2021/04/21 07:52:40;;;;;;;8.85;5.78;;;14.40;42.80;;;;;;5057560;28;20224;-91
2021/04/21 07:55:12;;;;;;;6.80;5.38;;;14.20;42.90;;;;;;5066450;28;20249;-88
2021/04/21 07:57:41;;;;;;;9.82;5.47;;;14.00;44.90;;;;;;5066080;28;20224;-89
2021/04/21 08:00:25;;;;;;;7.47;5.05;;;14.10;44.00;;;;;;5048083;28;20211;-87
2021/04/21 08:02:52;;;;;;;9.75;5.07;;;14.40;43.40;;;;;;5053441;28;20587;-88
2021/04/21 08:05:19;;;;;;;7.32;5.93;;;14.60;41.30;;;;;;5057224;28;20572;-91
2021/04/21 08:07:55;;;;;;;10.65;5.43;;;15.00;41.20;;;;;;5054117;28;20795;-91
2021/04/21 08:10:25;;;;;;;6.82;5.20;;;15.60;43.00;;;;;;5055487;28;20209;-88
2021/04/21 08:12:53;;;;;;;5.65;5.15;;;15.00;40.60;;;;;;5051274;28;20237;-89
2021/04/21 08:15:26;;;;;;;6.97;5.30;;;14.70;40.40;;;;;;5053427;28;20283;-92
2021/04/21 08:17:56;;;;;;;7.65;4.90;;;15.00;41.60;;;;;;5054862;28;20229;-90
2021/04/21 08:20:32;;;;;;;6.63;5.75;;;15.10;40.00;;;;;;5046363;28;20201;-89
2021/04/21 08:23:00;;;;;;;6.43;5.82;;;15.00;40.00;;;;;;5049087;28;20225;-90
2021/04/21 08:25:27;;;;;;;6.93;5.53;;;15.20;41.40;;;;;;5045483;28;20199;-90
2021/04/21 08:28:01;;;;;;;8.70;6.40;;;15.30;40.70;;;;;;5045230;28;20237;-90
2021/04/21 08:30:29;;;;;;;7.63;6.32;;;15.60;39.30;;;;;;5044320;28;20203;-90
2021/04/21 08:32:57;;;;;;;7.13;6.47;;;16.00;38.50;;;;;;5037689;28;20589;-91
2021/04/21 08:35:24;;;;;;;7.05;6.40;;;16.00;38.70;;;;;;5045327;28;20218;-90
2021/04/21 08:37:51;;;;;;;7.15;6.45;;;16.30;38.60;;;;;;5048341;28;20783;-90
2021/04/21 08:40:32;;;;;;;8.57;6.30;;;16.30;36.70;;;;;;5049894;28;20632;-91
2021/04/21 08:43:00;;;;;;;8.82;7.60;;;16.70;36.70;;;;;;5048708;28;20221;-89
2021/04/21 08:45:30;;;;;;;9.07;7.80;;;17.10;35.80;;;;;;5048201;28;20249;-88
2021/04/21 08:48:02;;;;;;;8.30;7.50;;;17.90;32.80;;;;;;5046518;28;20688;-89
2021/04/21 08:50:36;;;;;;;11.25;8.30;;;19.20;31.50;;;;;;5050192;28;20217;-89
2021/04/21 08:53:07;;;;;;;9.45;7.70;;;19.30;31.50;;;;;;5055864;28;20256;-88
2021/04/21 08:55:34;;;;;;;11.43;7.45;;;19.90;29.60;;;;;;5054352;28;20320;-89
2021/04/21 09:07:04;;;;;;;8.18;7.40;;;23.10;23.80;;;;;;5066232;28;20229;-89
2021/04/21 09:09:40;;;;;;;9.05;8.07;;;25.30;20.60;;;;;;5048826;28;20247;-90
2021/04/21 09:12:24;;;;;;;8.23;7.45;;;26.50;18.10;;;;;;5059872;28;20239;-89
2021/04/21 09:14:53;;;;;;;8.18;7.38;;;27.20;15.30;;;;;;5045197;28;20687;-90
2021/04/21 09:17:31;;;;;;;9.20;7.82;;;27.70;15.50;;;;;;5058924;28;20319;-89
2021/04/21 09:20:22;;;;;;;9.00;8.13;;;27.20;15.20;;;;;;5062581;28;20209;-90
2021/04/21 09:23:11;;;;;;;8.43;7.53;;;25.90;17.00;;;;;;5065654;28;20224;-89
2021/04/21 09:25:43;;;;;;;8.20;7.30;;;26.70;16.90;;;;;;5045657;28;20332;-92
2021/04/21 09:30:53;;;;;;;8.95;8.07;;;27.10;16.20;;;;;;5049440;28;20216;-92
2021/04/21 09:33:26;;;;;;;8.25;7.50;;;26.80;15.10;;;;;;5049679;28;20196;-90
2021/04/21 09:35:53;;;;;;;11.27;8.63;;;26.30;16.40;;;;;;5045123;28;20691;-89
2021/04/21 09:44:18;;;;;;;8.85;8.15;;;26.00;16.70;;;;;;5053974;28;20206;-89
2021/04/21 09:46:49;;;;;;;8.23;7.53;;;25.60;16.10;;;;;;5053544;28;20777;-88
2021/04/21 09:49:34;;;;;;;8.20;7.50;;;25.40;15.50;;;;;;5051264;28;20196;-88
2021/04/21 09:52:22;;;;;;;8.18;7.47;;;25.40;17.10;;;;;;5056027;28;20217;-89
2021/04/21 09:54:50;;;;;;;9.07;8.18;;;26.10;14.70;;;;;;5050787;28;20300;-88
2021/04/21 09:57:19;;;;;;;8.65;7.85;;;26.50;17.20;;;;;;5049128;28;20235;-89
2021/04/21 09:59:55;;;;;;;10.23;9.00;;;27.70;15.50;;;;;;5048186;28;20255;-90
2021/04/21 10:02:32;;;;;;;9.05;8.23;;;27.50;15.40;;;;;;5046259;28;20747;-90
2021/04/21 10:05:24;;;;;;;9.90;9.00;;;26.90;15.10;;;;;;5054811;28;20296;-88
2021/04/21 10:08:15;;;;;;;10.52;8.98;;;26.70;15.10;;;;;;5044337;28;20343;-89
2021/04/21 10:11:01;;;;;;;9.15;8.07;;;26.50;15.00;;;;;;5050303;28;20491;-88
2021/04/21 10:13:40;;;;;;;8.85;7.95;;;27.00;15.20;;;;;;5043956;28;20256;-87
2021/04/21 10:16:07;;;;;;;8.88;8.07;;;27.70;15.00;;;;;;5048106;28;20637;-87
2021/04/21 10:18:35;;;;;;;11.93;8.80;;;28.00;15.60;;;;;;5046201;28;20255;-89
2021/04/21 10:21:03;;;;;;;9.95;9.13;;;27.40;15.40;;;;;;5043751;28;20240;-89
2021/04/21 10:23:30;;;;;;;9.40;8.52;;;26.40;16.30;;;;;;5054034;28;20636;-88
2021/04/21 10:26:05;;;;;;;9.85;8.95;;;26.50;15.00;;;;;;5049718;28;20280;-88
2021/04/21 10:28:34;;;;;;;9.30;8.50;;;25.80;15.50;;;;;;5052906;28;20193;-87
2021/04/21 10:31:02;;;;;;;9.43;8.63;;;24.70;17.50;;;;;;5052896;28;20684;-86
2021/04/21 10:33:35;;;;;;;8.15;7.35;;;24.60;17.80;;;;;;5056078;28;20201;-85
2021/04/21 10:36:06;;;;;;;8.98;8.27;;;25.00;18.20;;;;;;5057741;28;20288;-87
2021/04/21 10:38:35;;;;;;;9.48;8.43;;;25.40;16.60;;;;;;5058860;28;20271;-87
2021/04/21 10:41:21;;;;;;;10.60;8.05;;;25.50;16.70;;;;;;5054100;28;20225;-86
2021/04/21 10:43:49;;;;;;;8.93;8.13;;;25.20;16.70;;;;;;5066602;28;20597;-87
2021/04/21 10:46:16;;;;;;;9.65;8.75;;;24.50;17.30;;;;;;5056754;28;20243;-87
2021/04/21 10:48:47;;;;;;;9.60;8.70;;;23.20;18.40;;;;;;5059274;28;20248;-87
2021/04/21 10:51:33;;;;;;;8.43;7.65;;;21.70;20.20;;;;;;5062091;28;20232;-87
2021/04/21 10:54:01;;;;;;;10.55;9.55;;;20.70;21.50;;;;;;5056645;28;20559;-87
2021/04/21 10:56:28;;;;;;;9.48;8.35;;;19.50;22.90;;;;;;5068624;28;20222;-89
2021/04/21 10:58:57;;;;;;;12.27;8.10;;;18.70;23.80;;;;;;5062098;28;20225;-84
2021/04/21 11:01:31;;;;;;;10.35;7.88;;;18.40;24.90;;;;;;5066985;28;20221;-88
2021/04/21 11:04:47;;;;;;;10.23;8.35;;;18.00;27.00;;;;;;5059564;28;20251;-85
2021/04/21 11:07:33;;;;;;;8.55;7.38;;;17.70;26.60;;;;;;5058449;28;20222;-89
2021/04/21 11:10:00;;;;;;;11.55;7.80;;;18.30;30.60;;;;;;5064793;28;20204;-89
2021/04/21 11:12:50;;;;;;;9.07;7.82;;;19.10;26.60;;;;;;5064926;28;20246;-87
2021/04/21 11:15:37;;;;;;;10.07;8.10;;;19.50;26.40;;;;;;5065354;28;20289;-85
2021/04/21 11:18:35;;;;;;;8.65;7.75;;;20.00;22.60;;;;;;5058517;28;20236;-86
2021/04/21 11:21:07;;;;;;;12.98;7.78;;;20.00;24.30;;;;;;5063468;28;20206;-89
2021/04/21 11:23:55;;;;;;;9.10;8.00;;;20.20;23.20;;;;;;5060004;28;20198;-89
2021/04/21 11:26:39;;;;;;;9.00;8.10;;;20.10;23.40;;;;;;5061870;28;20217;-89
2021/04/21 11:29:08;;;;;;;8.68;7.78;;;19.90;22.40;;;;;;5061112;28;20202;-91
2021/04/21 11:32:14;;;;;;;10.50;8.48;;;19.80;25.20;;;;;;5056321;28;20758;-88
2021/04/21 11:34:42;;;;;;;12.25;9.10;;;19.90;24.20;;;;;;5066287;28;20633;-92
2021/04/21 11:37:11;;;;;;;9.48;8.05;;;19.80;24.60;;;;;;5058592;28;20233;-89
2021/04/21 11:40:05;;;;;;;9.65;8.43;;;19.80;24.90;;;;;;5058696;28;20232;-88
2021/04/21 11:42:34;;;;;;;10.25;8.60;;;19.70;23.00;;;;;;5052216;28;20229;-86
2021/04/21 11:45:23;;;;;;;11.45;8.25;;;19.00;23.50;;;;;;5061164;28;20221;-86
2021/04/21 11:47:52;;;;;;;11.38;9.10;;;18.30;25.50;;;;;;5057969;28;20233;-87
2021/04/21 11:50:24;;;;;;;8.93;7.55;;;18.10;26.70;;;;;;5053984;28;20202;-86
2021/04/21 11:53:00;;;;;;;9.27;8.38;;;17.90;28.10;;;;;;5055192;28;20289;-88
2021/04/21 11:55:30;;;;;;;10.23;9.20;;;17.70;28.10;;;;;;5050079;28;20726;-88
2021/04/21 11:57:59;;;;;;;11.18;8.68;;;17.40;28.80;;;;;;5058738;28;20279;-89
2021/04/21 12:00:32;;;;;;;11.40;8.80;;;17.30;29.70;;;;;;5057354;28;20228;-89
2021/04/21 12:03:01;;;;;;;9.07;8.13;;;17.10;28.50;;;;;;5054191;28;20229;-89
2021/04/21 12:05:30;;;;;;;9.40;7.70;;;17.20;29.70;;;;;;5056540;28;20864;-89
2021/04/21 12:08:01;;;;;;;9.82;8.45;;;17.30;29.80;;;;;;5057254;28;20592;-88
2021/04/21 12:10:32;;;;;;;10.63;8.02;;;17.30;29.80;;;;;;5050016;28;20198;-89
2021/04/21 12:13:36;;;;;;;11.40;8.40;;;17.40;29.90;;;;;;5054821;28;20221;-88
2021/04/21 12:16:09;;;;;;;12.23;7.75;;;17.20;29.30;;;;;;5056179;28;22191;-88
2021/04/21 12:18:38;;;;;;;8.40;7.43;;;17.40;27.90;;;;;;5057944;28;20206;-88
2021/04/21 12:21:26;;;;;;;10.23;7.72;;;17.90;26.90;;;;;;5057409;28;20233;-88
2021/04/21 12:23:54;;;;;;;9.65;7.38;;;18.30;26.80;;;;;;5052461;28;20695;-90
2021/04/21 12:26:24;;;;;;;12.38;7.82;;;18.90;26.50;;;;;;5051204;28;20226;-88
2021/04/21 12:28:53;;;;;;;9.05;8.07;;;19.00;24.70;;;;;;5063049;28;20228;-86
2021/04/21 12:31:21;;;;;;;10.65;7.95;;;19.30;27.30;;;;;;5058880;28;20229;-86
2021/04/21 12:33:49;;;;;;;8.55;7.63;;;18.80;24.00;;;;;;5058510;28;20194;-88
2021/04/21 12:36:16;;;;;;;11.40;8.20;;;19.10;25.20;;;;;;5061104;28;20236;-89
2021/04/21 12:38:43;;;;;;;8.90;7.78;;;18.90;22.90;;;;;;5056794;28;20207;-88
2021/04/21 12:41:20;;;;;;;12.35;7.88;;;18.90;23.40;;;;;;5057884;28;20232;-87
2021/04/21 12:43:47;;;;;;;10.57;8.13;;;18.70;23.90;;;;;;5054756;28;20247;-90
2021/04/21 12:46:19;;;;;;;10.55;7.93;;;18.30;24.40;;;;;;5046640;28;20228;-89
2021/04/21 12:48:49;;;;;;;10.00;7.80;;;17.80;24.00;;;;;;5048265;28;20661;-90
2021/04/21 12:51:24;;;;;;;9.07;8.18;;;17.80;26.80;;;;;;5054110;28;20571;-90
2021/04/21 12:53:52;;;;;;;9.02;7.88;;;18.00;27.80;;;;;;5051981;28;20232;-88
2021/04/21 12:56:19;;;;;;;7.60;6.80;;;18.10;23.20;;;;;;5050615;28;20222;-89
2021/04/21 12:58:47;;;;;;;10.45;8.02;;;18.20;23.00;;;;;;5061186;28;20252;-88
2021/04/21 13:01:20;;;;;;;8.25;7.45;;;18.30;23.40;;;;;;5052009;28;20671;-88
2021/04/21 13:03:59;;;;;;;8.15;7.22;;;18.40;24.20;;;;;;5052330;28;20197;-90
2021/04/21 13:06:37;;;;;;;11.63;7.55;;;18.50;24.90;;;;;;5054484;28;20225;-89
2021/04/21 13:09:06;;;;;;;11.65;8.32;;;18.50;27.50;;;;;;5046191;28;20203;-88
2021/04/21 13:11:32;;;;;;;9.50;8.60;;;18.60;24.80;;;;;;5047572;28;20229;-87
2021/04/21 13:13:58;;;;;;;11.93;8.75;;;18.30;24.70;;;;;;5053745;28;20212;-87
2021/04/21 13:16:30;;;;;;;9.05;7.85;;;18.00;25.20;;;;;;5052401;28;20221;-88
2021/04/21 13:18:57;;;;;;;9.02;8.13;;;18.20;26.70;;;;;;5059631;28;20648;-89
2021/04/21 13:21:23;;;;;;;7.53;6.75;;;18.30;24.60;;;;;;5046538;28;20231;-89
2021/04/21 13:23:54;;;;;;;12.50;6.63;;;18.20;26.30;;;;;;5056571;28;20208;-89
2021/04/21 13:26:22;;;;;;;8.75;7.15;;;18.20;25.00;;;;;;5050731;28;20225;-89
2021/04/21 13:28:53;;;;;;;7.45;6.18;;;18.20;22.90;;;;;;5065663;28;20193;-88
2021/04/21 13:31:26;;;;;;;9.45;6.18;;;18.30;23.60;;;;;;5048408;28;20226;-88
2021/04/21 13:33:54;;;;;;;8.02;6.40;;;18.20;23.10;;;;;;5066046;28;20222;-87
2021/04/21 13:36:22;;;;;;;6.68;5.95;;;17.80;22.50;;;;;;5058260;28;20226;-88
2021/04/21 13:38:49;;;;;;;9.15;6.40;;;17.80;24.50;;;;;;5052276;28;20224;-88
2021/04/21 13:41:17;;;;;;;6.43;5.82;;;17.50;24.40;;;;;;5058583;28;20226;-88
2021/04/21 13:43:43;;;;;;;8.38;6.43;;;17.50;25.10;;;;;;5068710;28;20209;-88
2021/04/21 13:46:10;;;;;;;9.00;6.13;;;17.50;26.10;;;;;;5055035;28;20225;-88
2021/04/21 13:48:37;;;;;;;9.88;6.38;;;17.70;24.50;;;;;;5060859;28;20206;-88
2021/04/21 13:51:04;;;;;;;8.15;5.78;;;18.10;24.70;;;;;;5061933;28;20232;-88
2021/04/21 13:53:33;;;;;;;8.57;6.20;;;18.40;26.60;;;;;;5062564;28;20198;-88
2021/04/21 13:55:59;;;;;;;9.00;6.28;;;18.50;24.50;;;;;;5060466;28;20303;-88
2021/04/21 13:58:26;;;;;;;7.60;6.82;;;18.70;23.20;;;;;;5059589;28;20224;-87
2021/04/21 14:00:53;;;;;;;8.82;7.50;;;18.40;23.10;;;;;;5048748;28;20209;-89
2021/04/21 14:03:20;;;;;;;8.32;7.43;;;18.30;23.60;;;;;;5064145;28;20197;-87